Time,TemperatureF,DewpointF,PressureIn,WindDirection,WindDirectionDegrees,WindSpeedMPH,WindSpeedGustMPH,Humidity,HourlyPrecipIn,Conditions,Clouds,dailyrainin,SoftwareType,DateUTC
2013-05-28 00:06:00,51.4,46.0,30.17,East,98,0.0,0.0,81,0.00,,,0.00,weatherlink.com 1.10,2013-05-28 04:06:00,
2013-05-28 00:21:00,51.2,46.0,30.17,East,98,0.0,0.0,82,0.00,,,0.00,weatherlink.com 1.10,2013-05-28 04:21:00,
2013-05-28 00:36:00,50.5,46.0,30.17,East,97,0.0,0.0,83,0.00,,,0.00,weatherlink.com 1.10,2013-05-28 04:36:00,
2013-05-28 00:51:00,50.0,45.0,30.18,East,98,0.0,0.0,84,0.00,,,0.00,weatherlink.com 1.10,2013-05-28 04:51:00,
2013-05-28 01:06:00,49.8,46.0,30.18,East,98,0.0,1.0,85,0.00,,,0.00,weatherlink.com 1.10,2013-05-28 05:06:00,
2013-05-28 01:21:00,49.2,45.0,30.18,East,98,0.0,0.0,86,0.00,,,0.00,weatherlink.com 1.10,2013-05-28 05:21:00,
2013-05-28 01:37:00,48.9,46.0,30.18,East,97,0.0,1.0,88,0.00,,,0.00,weatherlink.com 1.10,2013-05-28 05:37:00,
2013-05-28 01:52:00,48.7,45.0,30.18,East,98,0.0,0.0,88,0.00,,,0.00,weatherlink.com 1.10,2013-05-28 05:52:00,
2013-05-28 02:07:00,48.3,45.0,30.19,East,98,0.0,1.0,88,0.00,,,0.00,weatherlink.com 1.10,2013-05-28 06:07:00,
2013-05-28 02:22:00,48.0,45.0,30.19,East,97,0.0,1.0,89,0.00,,,0.00,weatherlink.com 1.10,2013-05-28 06:22:00,
2013-05-28 02:37:00,47.7,45.0,30.18,East,98,0.0,0.0,89,0.00,,,0.00,weatherlink.com 1.10,2013-05-28 06:37:00,
2013-05-28 02:53:00,47.2,45.0,30.19,East,98,0.0,0.0,90,0.00,,,0.00,weatherlink.com 1.10,2013-05-28 06:53:00,
2013-05-28 03:07:00,47.1,45.0,30.19,East,97,0.0,1.0,91,0.00,,,0.00,weatherlink.com 1.10,2013-05-28 07:07:00,
2013-05-28 03:22:00,46.5,44.0,30.19,East,98,0.0,1.0,91,0.00,,,0.00,weatherlink.com 1.10,2013-05-28 07:22:00,
2013-05-28 03:37:00,46.5,44.0,30.19,East,97,0.0,1.0,92,0.00,,,0.00,weatherlink.com 1.10,2013-05-28 07:37:00,
2013-05-28 03:52:00,46.2,44.0,30.19,East,97,0.0,1.0,92,0.00,,,0.00,weatherlink.com 1.10,2013-05-28 07:52:00,
2013-05-28 04:07:00,46.0,44.0,30.19,East,97,0.0,1.0,93,0.00,,,0.00,weatherlink.com 1.10,2013-05-28 08:07:00,
2013-05-28 04:22:00,45.9,44.0,30.19,East,98,0.0,0.0,93,0.00,,,0.00,weatherlink.com 1.10,2013-05-28 08:22:00,
2013-05-28 04:37:00,45.7,44.0,30.19,East,97,0.0,1.0,93,0.00,,,0.00,weatherlink.com 1.10,2013-05-28 08:37:00,
2013-05-28 04:52:00,45.2,43.0,30.19,East,98,0.0,0.0,93,0.00,,,0.00,weatherlink.com 1.10,2013-05-28 08:52:00,
2013-05-28 05:07:00,44.9,43.0,30.19,East,98,0.0,1.0,94,0.00,,,0.00,weatherlink.com 1.10,2013-05-28 09:07:00,
2013-05-28 05:22:00,44.8,44.0,30.20,East,98,0.0,0.0,95,0.00,,,0.00,weatherlink.com 1.10,2013-05-28 09:22:00,
2013-05-28 05:37:00,44.7,43.0,30.20,East,97,0.0,0.0,95,0.00,,,0.00,weatherlink.com 1.10,2013-05-28 09:37:00,
2013-05-28 05:52:00,44.9,44.0,30.21,East,98,0.0,1.0,95,0.00,,,0.00,weatherlink.com 1.10,2013-05-28 09:52:00,
2013-05-28 06:07:00,44.7,43.0,30.21,East,98,0.0,0.0,95,0.00,,,0.00,weatherlink.com 1.10,2013-05-28 10:07:00,
2013-05-28 06:22:00,45.6,45.0,30.21,East,98,0.0,0.0,96,0.00,,,0.00,weatherlink.com 1.10,2013-05-28 10:22:00,
2013-05-28 06:37:00,47.2,46.0,30.22,East,97,0.0,1.0,96,0.00,,,0.00,weatherlink.com 1.10,2013-05-28 10:37:00,
2013-05-28 06:52:00,50.8,47.0,30.22,East,97,0.0,1.0,88,0.00,,,0.00,weatherlink.com 1.10,2013-05-28 10:52:00,
2013-05-28 07:07:00,53.7,46.0,30.22,ENE,65,0.0,2.0,75,0.00,,,0.00,weatherlink.com 1.10,2013-05-28 11:07:00,
2013-05-28 07:22:00,55.6,46.0,30.23,NE,44,1.0,2.0,71,0.00,,,0.00,weatherlink.com 1.10,2013-05-28 11:22:00,
2013-05-28 07:37:00,58.0,46.0,30.23,NNE,31,0.0,1.0,65,0.00,,,0.00,weatherlink.com 1.10,2013-05-28 11:37:00,
2013-05-28 07:52:00,58.4,46.0,30.23,NW,323,0.0,1.0,64,0.00,,,0.00,weatherlink.com 1.10,2013-05-28 11:52:00,
2013-05-28 08:07:00,61.0,46.0,30.23,NE,41,1.0,2.0,58,0.00,,,0.00,weatherlink.com 1.10,2013-05-28 12:07:00,
2013-05-28 08:22:00,63.7,46.0,30.23,ENE,67,0.0,0.0,52,0.00,,,0.00,weatherlink.com 1.10,2013-05-28 12:22:00,
2013-05-28 08:38:00,66.4,45.0,30.23,SW,226,0.0,1.0,47,0.00,,,0.00,weatherlink.com 1.10,2013-05-28 12:38:00,
2013-05-28 08:53:00,67.5,44.0,30.23,NNE,29,1.0,2.0,43,0.00,,,0.00,weatherlink.com 1.10,2013-05-28 12:53:00,
2013-05-28 09:08:00,68.3,41.0,30.23,SSE,162,0.0,5.0,37,0.00,,,0.00,weatherlink.com 1.10,2013-05-28 13:08:00,
2013-05-28 09:23:00,69.2,40.0,30.23,SE,136,1.0,4.0,35,0.00,,,0.00,weatherlink.com 1.10,2013-05-28 13:23:00,
2013-05-28 09:38:00,69.2,39.0,30.23,SW,218,3.0,4.0,33,0.00,,,0.00,weatherlink.com 1.10,2013-05-28 13:38:00,
2013-05-28 09:53:00,69.5,40.0,30.23,ESE,122,1.0,4.0,34,0.00,,,0.00,weatherlink.com 1.10,2013-05-28 13:53:00,
2013-05-28 10:08:00,70.2,41.0,30.23,ESE,108,0.0,4.0,35,0.00,,,0.00,weatherlink.com 1.10,2013-05-28 14:08:00,
2013-05-28 10:23:00,71.2,43.0,30.23,WSW,253,1.0,3.0,36,0.00,,,0.00,weatherlink.com 1.10,2013-05-28 14:23:00,
2013-05-28 10:38:00,70.4,44.0,30.23,ESE,121,0.0,6.0,39,0.00,,,0.00,weatherlink.com 1.10,2013-05-28 14:38:00,
2013-05-28 10:53:00,70.9,44.0,30.23,SSW,205,2.0,4.0,38,0.00,,,0.00,weatherlink.com 1.10,2013-05-28 14:53:00,
2013-05-28 11:08:00,71.4,44.0,30.23,SE,131,1.0,6.0,38,0.00,,,0.00,weatherlink.com 1.10,2013-05-28 15:08:00,
2013-05-28 11:23:00,71.3,46.0,30.23,ENE,75,1.0,6.0,40,0.00,,,0.00,weatherlink.com 1.10,2013-05-28 15:23:00,
2013-05-28 11:38:00,72.3,45.0,30.23,ESE,113,3.0,5.0,38,0.00,,,0.00,weatherlink.com 1.10,2013-05-28 15:38:00,
2013-05-28 12:08:00,72.2,45.0,30.23,SE,127,3.0,4.0,38,0.00,,,0.00,weatherlink.com 1.10,2013-05-28 16:08:00,
2013-05-28 12:23:00,72.7,45.0,30.22,SSE,167,2.0,6.0,37,0.00,,,0.00,weatherlink.com 1.10,2013-05-28 16:23:00,
2013-05-28 12:38:00,72.8,45.0,30.22,SSE,154,0.0,7.0,37,0.00,,,0.00,weatherlink.com 1.10,2013-05-28 16:38:00,
2013-05-28 12:53:00,72.9,44.0,30.21,East,99,1.0,8.0,36,0.00,,,0.00,weatherlink.com 1.10,2013-05-28 16:53:00,
2013-05-28 13:08:00,73.8,44.0,30.21,East,96,4.0,6.0,35,0.00,,,0.00,weatherlink.com 1.10,2013-05-28 17:08:00,
2013-05-28 13:23:00,73.4,45.0,30.20,SSE,152,0.0,7.0,36,0.00,,,0.00,weatherlink.com 1.10,2013-05-28 17:23:00,
2013-05-28 13:38:00,74.1,45.0,30.20,East,88,6.0,7.0,35,0.00,,,0.00,weatherlink.com 1.10,2013-05-28 17:38:00,
2013-05-28 13:53:00,73.2,45.0,30.20,East,86,2.0,6.0,36,0.00,,,0.00,weatherlink.com 1.10,2013-05-28 17:53:00,
2013-05-28 14:08:00,72.9,44.0,30.20,NNW,345,0.0,8.0,35,0.00,,,0.00,weatherlink.com 1.10,2013-05-28 18:08:00,
2013-05-28 14:23:00,72.3,45.0,30.19,ESE,119,3.0,8.0,38,0.00,,,0.00,weatherlink.com 1.10,2013-05-28 18:23:00,
2013-05-28 14:38:00,71.5,45.0,30.19,ESE,111,3.0,5.0,39,0.00,,,0.00,weatherlink.com 1.10,2013-05-28 18:38:00,
2013-05-28 14:53:00,71.7,46.0,30.19,NE,39,5.0,8.0,40,0.00,,,0.00,weatherlink.com 1.10,2013-05-28 18:53:00,
2013-05-28 15:08:00,71.7,47.0,30.19,NNW,339,2.0,6.0,41,0.00,,,0.00,weatherlink.com 1.10,2013-05-28 19:08:00,
2013-05-28 15:23:00,70.1,46.0,30.18,SE,128,1.0,4.0,42,0.00,,,0.00,weatherlink.com 1.10,2013-05-28 19:23:00,
2013-05-28 15:38:00,70.0,46.0,30.19,NE,56,0.0,8.0,43,0.00,,,0.00,weatherlink.com 1.10,2013-05-28 19:38:00,
2013-05-28 15:53:00,69.8,46.0,30.18,ENE,59,5.0,7.0,43,0.00,,,0.00,weatherlink.com 1.10,2013-05-28 19:53:00,
2013-05-28 16:08:00,68.8,48.0,30.18,SE,141,1.0,6.0,47,0.00,,,0.00,weatherlink.com 1.10,2013-05-28 20:08:00,
2013-05-28 16:23:00,68.2,49.0,30.18,NNE,26,2.0,6.0,50,0.00,,,0.00,weatherlink.com 1.10,2013-05-28 20:23:00,
2013-05-28 16:38:00,67.6,49.0,30.18,East,88,1.0,7.0,52,0.00,,,0.00,weatherlink.com 1.10,2013-05-28 20:38:00,
2013-05-28 16:53:00,67.8,49.0,30.17,ESE,103,1.0,6.0,51,0.00,,,0.00,weatherlink.com 1.10,2013-05-28 20:53:00,
2013-05-28 17:08:00,68.1,49.0,30.17,NE,34,2.0,6.0,51,0.00,,,0.00,weatherlink.com 1.10,2013-05-28 21:08:00,
2013-05-28 17:23:00,67.7,50.0,30.17,SSE,150,0.0,3.0,54,0.00,,,0.00,weatherlink.com 1.10,2013-05-28 21:23:00,
2013-05-28 17:38:00,67.7,51.0,30.17,North,350,2.0,5.0,56,0.00,,,0.00,weatherlink.com 1.10,2013-05-28 21:38:00,
2013-05-28 17:53:00,67.3,53.0,30.16,West,277,1.0,5.0,60,0.00,,,0.00,weatherlink.com 1.10,2013-05-28 21:53:00,
2013-05-28 18:08:00,66.9,51.0,30.16,NW,326,1.0,4.0,58,0.00,,,0.00,weatherlink.com 1.10,2013-05-28 22:08:00,
2013-05-28 18:23:00,66.9,52.0,30.16,SE,131,0.0,3.0,60,0.00,,,0.00,weatherlink.com 1.10,2013-05-28 22:23:00,
2013-05-28 18:38:00,66.7,53.0,30.16,SE,124,2.0,2.0,61,0.00,,,0.00,weatherlink.com 1.10,2013-05-28 22:38:00,
2013-05-28 18:53:00,66.0,53.0,30.16,SE,141,1.0,3.0,63,0.00,,,0.00,weatherlink.com 1.10,2013-05-28 22:53:00,
2013-05-28 19:08:00,65.3,53.0,30.16,ESE,116,0.0,2.0,65,0.00,,,0.00,weatherlink.com 1.10,2013-05-28 23:08:00,
2013-05-28 19:23:00,64.7,54.0,30.16,ESE,116,0.0,0.0,68,0.00,,,0.00,weatherlink.com 1.10,2013-05-28 23:23:00,
2013-05-28 19:38:00,63.8,54.0,30.16,ESE,113,0.0,1.0,70,0.00,,,0.00,weatherlink.com 1.10,2013-05-28 23:38:00,
2013-05-28 19:53:00,62.5,54.0,30.16,ESE,115,0.0,0.0,73,0.00,,,0.00,weatherlink.com 1.10,2013-05-28 23:53:00,
2013-05-28 20:08:00,61.7,54.0,30.16,ESE,115,0.0,1.0,75,0.00,,,0.00,weatherlink.com 1.10,2013-05-29 00:08:00,
2013-05-28 20:23:00,61.1,54.0,30.16,ESE,115,0.0,1.0,77,0.00,,,0.00,weatherlink.com 1.10,2013-05-29 00:23:00,
2013-05-28 20:38:00,61.6,52.0,30.16,SE,139,0.0,3.0,70,0.00,,,0.00,weatherlink.com 1.10,2013-05-29 00:38:00,
2013-05-28 20:53:00,63.2,52.0,30.16,WSW,256,1.0,4.0,66,0.00,,,0.00,weatherlink.com 1.10,2013-05-29 00:53:00,
2013-05-28 21:08:00,62.8,51.0,30.17,South,186,1.0,4.0,66,0.00,,,0.00,weatherlink.com 1.10,2013-05-29 01:08:00,
2013-05-28 21:23:00,62.4,51.0,30.18,East,91,0.0,1.0,66,0.00,,,0.00,weatherlink.com 1.10,2013-05-29 01:23:00,
2013-05-28 21:38:00,62.1,51.0,30.18,SSE,153,0.0,2.0,66,0.00,,,0.00,weatherlink.com 1.10,2013-05-29 01:38:00,
2013-05-28 21:53:00,62.0,50.0,30.18,ESE,119,0.0,2.0,66,0.00,,,0.00,weatherlink.com 1.10,2013-05-29 01:53:00,
2013-05-28 22:08:00,60.8,51.0,30.18,South,186,0.0,3.0,69,0.00,,,0.00,weatherlink.com 1.10,2013-05-29 02:08:00,
2013-05-28 22:23:00,60.3,50.0,30.19,WSW,239,0.0,2.0,69,0.00,,,0.00,weatherlink.com 1.10,2013-05-29 02:23:00,
2013-05-28 22:38:00,60.7,50.0,30.18,SSW,203,0.0,3.0,69,0.00,,,0.00,weatherlink.com 1.10,2013-05-29 02:38:00,
2013-05-28 22:53:00,61.0,51.0,30.19,SW,221,2.0,4.0,70,0.00,,,0.00,weatherlink.com 1.10,2013-05-29 02:53:00,
2013-05-28 23:09:00,61.2,52.0,30.19,WSW,257,2.0,5.0,72,0.00,,,0.00,weatherlink.com 1.10,2013-05-29 03:09:00,
2013-05-28 23:24:00,61.1,52.0,30.18,WSW,239,0.0,5.0,73,0.00,,,0.00,weatherlink.com 1.10,2013-05-29 03:24:00,
2013-05-28 23:39:00,61.2,52.0,30.19,South,180,0.0,3.0,73,0.00,,,0.00,weatherlink.com 1.10,2013-05-29 03:39:00,
2013-05-28 23:54:00,61.5,53.0,30.19,SW,218,0.0,3.0,74,0.00,,,0.00,weatherlink.com 1.10,2013-05-29 03:54:00,